sensor_id;sensor_type;location;lat;lon;timestamp;P1;durP1;ratioP1;P2;durP2;ratioP2
47481;SDS011;33219;47.410;9.730;2023-04-03T00:00:57;1.07;;;0.70;;
47481;SDS011;33219;47.410;9.730;2023-04-03T00:03:25;1.55;;;1.02;;
47481;SDS011;33219;47.410;9.730;2023-04-03T00:05:52;0.93;;;0.82;;
47481;SDS011;33219;47.410;9.730;2023-04-03T00:08:20;2.25;;;1.17;;
47481;SDS011;33219;47.410;9.730;2023-04-03T00:10:48;0.70;;;0.70;;
47481;SDS011;33219;47.410;9.730;2023-04-03T00:13:16;1.40;;;1.02;;
47481;SDS011;33219;47.410;9.730;2023-04-03T00:15:43;1.22;;;1.02;;
47481;SDS011;33219;47.410;9.730;2023-04-03T00:18:11;0.70;;;0.70;;
47481;SDS011;33219;47.410;9.730;2023-04-03T00:20:39;1.40;;;1.10;;
47481;SDS011;33219;47.410;9.730;2023-04-03T00:23:06;1.40;;;1.20;;
47481;SDS011;33219;47.410;9.730;2023-04-03T00:25:34;1.07;;;0.95;;
47481;SDS011;33219;47.410;9.730;2023-04-03T00:28:02;1.72;;;1.32;;
47481;SDS011;33219;47.410;9.730;2023-04-03T00:30:30;1.25;;;1.10;;
47481;SDS011;33219;47.410;9.730;2023-04-03T00:32:58;2.58;;;1.42;;
47481;SDS011;33219;47.410;9.730;2023-04-03T00:35:26;2.08;;;1.40;;
47481;SDS011;33219;47.410;9.730;2023-04-03T00:37:54;1.27;;;1.05;;
47481;SDS011;33219;47.410;9.730;2023-04-03T00:40:23;1.55;;;1.30;;
47481;SDS011;33219;47.410;9.730;2023-04-03T00:42:55;2.22;;;1.50;;
47481;SDS011;33219;47.410;9.730;2023-04-03T00:45:30;2.00;;;1.50;;
47481;SDS011;33219;47.410;9.730;2023-04-03T00:48:02;2.27;;;1.60;;
47481;SDS011;33219;47.410;9.730;2023-04-03T00:50:32;2.87;;;1.77;;
47481;SDS011;33219;47.410;9.730;2023-04-03T00:53:03;1.77;;;1.47;;
47481;SDS011;33219;47.410;9.730;2023-04-03T00:55:33;2.50;;;1.82;;
47481;SDS011;33219;47.410;9.730;2023-04-03T00:58:03;3.15;;;1.87;;
47481;SDS011;33219;47.410;9.730;2023-04-03T01:00:36;1.87;;;1.55;;
47481;SDS011;33219;47.410;9.730;2023-04-03T01:03:06;2.98;;;2.37;;
47481;SDS011;33219;47.410;9.730;2023-04-03T01:05:35;3.42;;;2.45;;
47481;SDS011;33219;47.410;9.730;2023-04-03T01:08:03;3.83;;;2.80;;
47481;SDS011;33219;47.410;9.730;2023-04-03T01:10:30;3.47;;;2.83;;
47481;SDS011;33219;47.410;9.730;2023-04-03T01:12:58;3.55;;;2.52;;
47481;SDS011;33219;47.410;9.730;2023-04-03T01:15:27;3.80;;;2.80;;
47481;SDS011;33219;47.410;9.730;2023-04-03T01:17:57;3.77;;;2.90;;
47481;SDS011;33219;47.410;9.730;2023-04-03T01:25:43;3.97;;;2.50;;
47481;SDS011;33219;47.410;9.730;2023-04-03T01:28:23;4.70;;;3.30;;
47481;SDS011;33219;47.410;9.730;2023-04-03T01:33:28;4.03;;;3.23;;
47481;SDS011;33219;47.410;9.730;2023-04-03T01:35:56;4.70;;;3.50;;
47481;SDS011;33219;47.410;9.730;2023-04-03T01:38:24;4.70;;;2.80;;
47481;SDS011;33219;47.410;9.730;2023-04-03T01:40:52;4.77;;;2.97;;
47481;SDS011;33219;47.410;9.730;2023-04-03T01:43:19;4.67;;;3.57;;
47481;SDS011;33219;47.410;9.730;2023-04-03T01:45:47;4.67;;;3.53;;
47481;SDS011;33219;47.410;9.730;2023-04-03T01:48:16;5.53;;;3.63;;
47481;SDS011;33219;47.410;9.730;2023-04-03T01:50:43;5.00;;;3.50;;
47481;SDS011;33219;47.410;9.730;2023-04-03T01:53:11;5.00;;;3.33;;
47481;SDS011;33219;47.410;9.730;2023-04-03T01:55:39;3.83;;;2.73;;
47481;SDS011;33219;47.410;9.730;2023-04-03T01:58:07;8.53;;;3.07;;
47481;SDS011;33219;47.410;9.730;2023-04-03T02:00:34;5.40;;;3.80;;
47481;SDS011;33219;47.410;9.730;2023-04-03T02:03:02;4.72;;;3.27;;
47481;SDS011;33219;47.410;9.730;2023-04-03T02:05:30;4.87;;;3.87;;
47481;SDS011;33219;47.410;9.730;2023-04-03T02:07:58;3.70;;;2.90;;
47481;SDS011;33219;47.410;9.730;2023-04-03T02:10:25;4.50;;;3.17;;
47481;SDS011;33219;47.410;9.730;2023-04-03T02:12:53;3.20;;;2.23;;
47481;SDS011;33219;47.410;9.730;2023-04-03T02:15:21;5.27;;;3.97;;
47481;SDS011;33219;47.410;9.730;2023-04-03T02:17:49;4.33;;;3.03;;
47481;SDS011;33219;47.410;9.730;2023-04-03T02:20:16;5.20;;;3.50;;
47481;SDS011;33219;47.410;9.730;2023-04-03T02:22:44;5.10;;;3.30;;
47481;SDS011;33219;47.410;9.730;2023-04-03T02:25:12;5.50;;;3.53;;
47481;SDS011;33219;47.410;9.730;2023-04-03T02:27:39;5.73;;;3.93;;
47481;SDS011;33219;47.410;9.730;2023-04-03T02:30:07;5.73;;;4.00;;
47481;SDS011;33219;47.410;9.730;2023-04-03T02:32:36;5.83;;;3.80;;
47481;SDS011;33219;47.410;9.730;2023-04-03T02:35:04;5.07;;;3.90;;
47481;SDS011;33219;47.410;9.730;2023-04-03T02:37:31;5.90;;;3.83;;
47481;SDS011;33219;47.410;9.730;2023-04-03T02:39:59;6.43;;;4.53;;
47481;SDS011;33219;47.410;9.730;2023-04-03T02:42:27;5.47;;;4.40;;
47481;SDS011;33219;47.410;9.730;2023-04-03T02:44:54;6.37;;;4.67;;
47481;SDS011;33219;47.410;9.730;2023-04-03T02:47:22;4.87;;;3.77;;
47481;SDS011;33219;47.410;9.730;2023-04-03T02:49:49;5.97;;;4.47;;
47481;SDS011;33219;47.410;9.730;2023-04-03T02:52:18;6.50;;;4.60;;
47481;SDS011;33219;47.410;9.730;2023-04-03T02:54:46;5.93;;;4.37;;
47481;SDS011;33219;47.410;9.730;2023-04-03T02:57:14;5.53;;;4.17;;
47481;SDS011;33219;47.410;9.730;2023-04-03T02:59:42;5.30;;;3.93;;
47481;SDS011;33219;47.410;9.730;2023-04-03T03:02:10;5.60;;;3.83;;
47481;SDS011;33219;47.410;9.730;2023-04-03T03:04:37;6.67;;;4.90;;
47481;SDS011;33219;47.410;9.730;2023-04-03T03:07:05;6.30;;;3.93;;
47481;SDS011;33219;47.410;9.730;2023-04-03T03:09:33;7.03;;;4.50;;
47481;SDS011;33219;47.410;9.730;2023-04-03T03:12:00;6.50;;;4.70;;
47481;SDS011;33219;47.410;9.730;2023-04-03T03:14:28;6.17;;;4.57;;
47481;SDS011;33219;47.410;9.730;2023-04-03T03:16:55;7.27;;;4.93;;
47481;SDS011;33219;47.410;9.730;2023-04-03T03:19:23;6.73;;;5.00;;
47481;SDS011;33219;47.410;9.730;2023-04-03T03:21:51;8.07;;;5.00;;
47481;SDS011;33219;47.410;9.730;2023-04-03T03:24:18;6.77;;;5.03;;
47481;SDS011;33219;47.410;9.730;2023-04-03T03:26:46;5.90;;;5.00;;
47481;SDS011;33219;47.410;9.730;2023-04-03T03:29:13;6.70;;;5.23;;
47481;SDS011;33219;47.410;9.730;2023-04-03T03:31:41;7.43;;;5.17;;
47481;SDS011;33219;47.410;9.730;2023-04-03T03:34:08;6.93;;;5.43;;
47481;SDS011;33219;47.410;9.730;2023-04-03T03:36:36;7.97;;;5.90;;
47481;SDS011;33219;47.410;9.730;2023-04-03T03:39:04;8.83;;;6.80;;
47481;SDS011;33219;47.410;9.730;2023-04-03T03:41:31;9.90;;;7.17;;
47481;SDS011;33219;47.410;9.730;2023-04-03T03:43:59;8.50;;;6.13;;
47481;SDS011;33219;47.410;9.730;2023-04-03T03:46:27;8.67;;;6.20;;
47481;SDS011;33219;47.410;9.730;2023-04-03T03:48:54;8.47;;;6.40;;
47481;SDS011;33219;47.410;9.730;2023-04-03T03:51:22;8.87;;;6.20;;
47481;SDS011;33219;47.410;9.730;2023-04-03T03:53:49;9.50;;;6.37;;
47481;SDS011;33219;47.410;9.730;2023-04-03T03:56:17;9.80;;;6.77;;
47481;SDS011;33219;47.410;9.730;2023-04-03T03:58:44;10.90;;;7.13;;
47481;SDS011;33219;47.410;9.730;2023-04-03T04:01:12;9.63;;;6.23;;
47481;SDS011;33219;47.410;9.730;2023-04-03T04:03:40;10.90;;;7.40;;
47481;SDS011;33219;47.410;9.730;2023-04-03T04:06:08;10.07;;;7.30;;
47481;SDS011;33219;47.410;9.730;2023-04-03T04:08:36;9.87;;;6.60;;
47481;SDS011;33219;47.410;9.730;2023-04-03T04:11:03;10.03;;;6.97;;
47481;SDS011;33219;47.410;9.730;2023-04-03T04:13:31;11.67;;;7.20;;
47481;SDS011;33219;47.410;9.730;2023-04-03T04:15:59;10.33;;;6.90;;
47481;SDS011;33219;47.410;9.730;2023-04-03T04:18:26;9.57;;;7.20;;
47481;SDS011;33219;47.410;9.730;2023-04-03T04:20:54;9.53;;;6.87;;
47481;SDS011;33219;47.410;9.730;2023-04-03T04:23:22;9.30;;;7.07;;
47481;SDS011;33219;47.410;9.730;2023-04-03T04:25:50;13.17;;;8.13;;
47481;SDS011;33219;47.410;9.730;2023-04-03T04:28:18;10.43;;;7.40;;
47481;SDS011;33219;47.410;9.730;2023-04-03T04:30:45;9.90;;;8.00;;
47481;SDS011;33219;47.410;9.730;2023-04-03T04:33:13;11.13;;;7.50;;
47481;SDS011;33219;47.410;9.730;2023-04-03T04:35:41;11.53;;;7.67;;
47481;SDS011;33219;47.410;9.730;2023-04-03T04:38:09;12.43;;;7.80;;
47481;SDS011;33219;47.410;9.730;2023-04-03T04:40:37;10.00;;;7.70;;
47481;SDS011;33219;47.410;9.730;2023-04-03T04:43:04;10.60;;;7.93;;
47481;SDS011;33219;47.410;9.730;2023-04-03T04:45:32;11.00;;;7.93;;
47481;SDS011;33219;47.410;9.730;2023-04-03T04:47:59;11.97;;;8.40;;
47481;SDS011;33219;47.410;9.730;2023-04-03T04:50:27;11.37;;;7.77;;
47481;SDS011;33219;47.410;9.730;2023-04-03T04:52:54;11.87;;;7.87;;
47481;SDS011;33219;47.410;9.730;2023-04-03T04:55:22;12.23;;;8.57;;
47481;SDS011;33219;47.410;9.730;2023-04-03T04:57:49;11.27;;;8.30;;
47481;SDS011;33219;47.410;9.730;2023-04-03T05:00:17;10.13;;;8.17;;
47481;SDS011;33219;47.410;9.730;2023-04-03T05:02:45;11.50;;;7.80;;
47481;SDS011;33219;47.410;9.730;2023-04-03T05:05:13;14.03;;;8.63;;
47481;SDS011;33219;47.410;9.730;2023-04-03T05:07:41;10.77;;;7.80;;
47481;SDS011;33219;47.410;9.730;2023-04-03T05:10:09;10.93;;;7.50;;
47481;SDS011;33219;47.410;9.730;2023-04-03T05:12:36;11.80;;;8.53;;
47481;SDS011;33219;47.410;9.730;2023-04-03T05:15:04;11.03;;;7.90;;
47481;SDS011;33219;47.410;9.730;2023-04-03T05:17:33;11.70;;;8.17;;
47481;SDS011;33219;47.410;9.730;2023-04-03T05:20:01;11.13;;;8.00;;
47481;SDS011;33219;47.410;9.730;2023-04-03T05:22:30;10.27;;;7.43;;
47481;SDS011;33219;47.410;9.730;2023-04-03T05:24:58;10.80;;;8.07;;
47481;SDS011;33219;47.410;9.730;2023-04-03T05:27:25;11.93;;;8.30;;
47481;SDS011;33219;47.410;9.730;2023-04-03T05:29:55;13.23;;;8.30;;
47481;SDS011;33219;47.410;9.730;2023-04-03T05:32:23;12.47;;;8.03;;
47481;SDS011;33219;47.410;9.730;2023-04-03T05:34:53;10.63;;;7.73;;
47481;SDS011;33219;47.410;9.730;2023-04-03T05:37:21;10.50;;;7.43;;
47481;SDS011;33219;47.410;9.730;2023-04-03T05:39:48;12.33;;;8.27;;
47481;SDS011;33219;47.410;9.730;2023-04-03T05:42:16;13.23;;;8.97;;
47481;SDS011;33219;47.410;9.730;2023-04-03T05:44:44;12.27;;;8.77;;
47481;SDS011;33219;47.410;9.730;2023-04-03T05:47:12;9.83;;;7.90;;
47481;SDS011;33219;47.410;9.730;2023-04-03T05:49:40;14.60;;;9.93;;
47481;SDS011;33219;47.410;9.730;2023-04-03T05:52:22;10.43;;;7.47;;
47481;SDS011;33219;47.410;9.730;2023-04-03T05:57:17;12.50;;;8.27;;
47481;SDS011;33219;47.410;9.730;2023-04-03T05:59:45;12.57;;;8.20;;
47481;SDS011;33219;47.410;9.730;2023-04-03T06:02:17;11.57;;;8.30;;
47481;SDS011;33219;47.410;9.730;2023-04-03T06:04:46;14.83;;;8.80;;
47481;SDS011;33219;47.410;9.730;2023-04-03T06:07:15;13.43;;;8.70;;
47481;SDS011;33219;47.410;9.730;2023-04-03T06:09:46;13.43;;;8.70;;
47481;SDS011;33219;47.410;9.730;2023-04-03T06:12:14;12.03;;;8.80;;
47481;SDS011;33219;47.410;9.730;2023-04-03T06:14:41;11.83;;;8.67;;
47481;SDS011;33219;47.410;9.730;2023-04-03T06:17:09;12.53;;;8.40;;
47481;SDS011;33219;47.410;9.730;2023-04-03T06:19:37;11.63;;;8.33;;
47481;SDS011;33219;47.410;9.730;2023-04-03T06:22:05;11.40;;;8.27;;
47481;SDS011;33219;47.410;9.730;2023-04-03T06:24:33;13.03;;;8.53;;
47481;SDS011;33219;47.410;9.730;2023-04-03T06:27:01;14.80;;;8.90;;
47481;SDS011;33219;47.410;9.730;2023-04-03T06:29:28;16.33;;;8.63;;
47481;SDS011;33219;47.410;9.730;2023-04-03T06:31:56;11.77;;;8.83;;
47481;SDS011;33219;47.410;9.730;2023-04-03T06:34:24;13.07;;;9.27;;
47481;SDS011;33219;47.410;9.730;2023-04-03T06:36:52;10.50;;;8.23;;
47481;SDS011;33219;47.410;9.730;2023-04-03T06:39:20;12.85;;;8.23;;
47481;SDS011;33219;47.410;9.730;2023-04-03T06:41:49;11.27;;;7.67;;
47481;SDS011;33219;47.410;9.730;2023-04-03T06:44:17;12.13;;;8.25;;
47481;SDS011;33219;47.410;9.730;2023-04-03T06:46:45;12.03;;;8.17;;
47481;SDS011;33219;47.410;9.730;2023-04-03T06:49:12;10.95;;;7.78;;
47481;SDS011;33219;47.410;9.730;2023-04-03T06:51:41;12.77;;;8.17;;
47481;SDS011;33219;47.410;9.730;2023-04-03T06:54:08;11.27;;;8.07;;
47481;SDS011;33219;47.410;9.730;2023-04-03T06:56:36;11.10;;;8.17;;
47481;SDS011;33219;47.410;9.730;2023-04-03T06:59:04;11.37;;;8.13;;
47481;SDS011;33219;47.410;9.730;2023-04-03T07:01:31;11.63;;;8.00;;
47481;SDS011;33219;47.410;9.730;2023-04-03T07:03:59;11.57;;;7.87;;
47481;SDS011;33219;47.410;9.730;2023-04-03T07:06:27;11.47;;;8.10;;
47481;SDS011;33219;47.410;9.730;2023-04-03T07:08:55;11.23;;;7.50;;
47481;SDS011;33219;47.410;9.730;2023-04-03T07:11:23;12.00;;;8.33;;
47481;SDS011;33219;47.410;9.730;2023-04-03T07:13:51;10.50;;;7.83;;
47481;SDS011;33219;47.410;9.730;2023-04-03T07:16:19;11.00;;;8.18;;
47481;SDS011;33219;47.410;9.730;2023-04-03T07:18:47;10.77;;;7.60;;
47481;SDS011;33219;47.410;9.730;2023-04-03T07:21:15;12.67;;;8.00;;
47481;SDS011;33219;47.410;9.730;2023-04-03T07:23:42;12.57;;;8.90;;
47481;SDS011;33219;47.410;9.730;2023-04-03T07:26:10;12.35;;;8.35;;
47481;SDS011;33219;47.410;9.730;2023-04-03T07:28:38;10.23;;;8.07;;
47481;SDS011;33219;47.410;9.730;2023-04-03T07:31:08;11.87;;;8.53;;
47481;SDS011;33219;47.410;9.730;2023-04-03T07:33:40;11.70;;;8.93;;
47481;SDS011;33219;47.410;9.730;2023-04-03T07:36:09;12.55;;;8.95;;
47481;SDS011;33219;47.410;9.730;2023-04-03T07:38:37;14.40;;;8.93;;
47481;SDS011;33219;47.410;9.730;2023-04-03T07:41:04;12.90;;;9.10;;
47481;SDS011;33219;47.410;9.730;2023-04-03T07:43:32;12.07;;;8.40;;
47481;SDS011;33219;47.410;9.730;2023-04-03T07:46:00;12.25;;;8.38;;
47481;SDS011;33219;47.410;9.730;2023-04-03T07:48:28;11.30;;;8.30;;
47481;SDS011;33219;47.410;9.730;2023-04-03T07:50:58;14.20;;;8.93;;
47481;SDS011;33219;47.410;9.730;2023-04-03T07:53:26;12.25;;;8.45;;
47481;SDS011;33219;47.410;9.730;2023-04-03T07:55:55;13.40;;;9.00;;
47481;SDS011;33219;47.410;9.730;2023-04-03T07:58:24;11.85;;;8.63;;
47481;SDS011;33219;47.410;9.730;2023-04-03T08:00:52;11.55;;;8.40;;
47481;SDS011;33219;47.410;9.730;2023-04-03T08:03:20;12.60;;;9.10;;
47481;SDS011;33219;47.410;9.730;2023-04-03T08:05:49;11.50;;;8.28;;
47481;SDS011;33219;47.410;9.730;2023-04-03T08:08:18;11.28;;;8.10;;
47481;SDS011;33219;47.410;9.730;2023-04-03T08:10:57;11.48;;;8.18;;
47481;SDS011;33219;47.410;9.730;2023-04-03T08:13:20;9.68;;;7.28;;
47481;SDS011;33219;47.410;9.730;2023-04-03T08:15:49;11.40;;;7.25;;
47481;SDS011;33219;47.410;9.730;2023-04-03T08:18:16;9.93;;;7.30;;
47481;SDS011;33219;47.410;9.730;2023-04-03T08:20:46;11.90;;;7.87;;
47481;SDS011;33219;47.410;9.730;2023-04-03T08:23:14;11.28;;;8.13;;
47481;SDS011;33219;47.410;9.730;2023-04-03T08:25:42;13.18;;;8.43;;
47481;SDS011;33219;47.410;9.730;2023-04-03T08:28:10;12.58;;;7.90;;
47481;SDS011;33219;47.410;9.730;2023-04-03T08:30:41;13.03;;;8.15;;
47481;SDS011;33219;47.410;9.730;2023-04-03T08:33:09;10.95;;;8.10;;
47481;SDS011;33219;47.410;9.730;2023-04-03T08:35:40;10.15;;;7.95;;
47481;SDS011;33219;47.410;9.730;2023-04-03T08:38:08;8.75;;;7.17;;
47481;SDS011;33219;47.410;9.730;2023-04-03T08:40:36;11.12;;;7.60;;
47481;SDS011;33219;47.410;9.730;2023-04-03T08:45:59;10.15;;;7.72;;
47481;SDS011;33219;47.410;9.730;2023-04-03T08:48:34;11.00;;;7.00;;
47481;SDS011;33219;47.410;9.730;2023-04-03T08:51:04;9.23;;;7.25;;
47481;SDS011;33219;47.410;9.730;2023-04-03T08:53:36;10.53;;;7.45;;
47481;SDS011;33219;47.410;9.730;2023-04-03T08:56:07;10.25;;;7.40;;
47481;SDS011;33219;47.410;9.730;2023-04-03T08:58:48;10.58;;;7.75;;
47481;SDS011;33219;47.410;9.730;2023-04-03T09:01:20;11.03;;;7.40;;
47481;SDS011;33219;47.410;9.730;2023-04-03T09:03:49;12.03;;;7.97;;
47481;SDS011;33219;47.410;9.730;2023-04-03T09:06:21;12.90;;;8.08;;
47481;SDS011;33219;47.410;9.730;2023-04-03T09:11:41;10.40;;;7.60;;
47481;SDS011;33219;47.410;9.730;2023-04-03T09:14:43;11.93;;;8.18;;
47481;SDS011;33219;47.410;9.730;2023-04-03T09:17:22;11.97;;;8.33;;
47481;SDS011;33219;47.410;9.730;2023-04-03T09:22:42;13.28;;;8.30;;
47481;SDS011;33219;47.410;9.730;2023-04-03T09:25:23;11.88;;;8.68;;
47481;SDS011;33219;47.410;9.730;2023-04-03T09:27:56;12.07;;;8.93;;
47481;SDS011;33219;47.410;9.730;2023-04-03T09:30:24;13.13;;;8.78;;
47481;SDS011;33219;47.410;9.730;2023-04-03T09:32:54;10.95;;;7.70;;
47481;SDS011;33219;47.410;9.730;2023-04-03T09:35:27;10.95;;;8.28;;
47481;SDS011;33219;47.410;9.730;2023-04-03T09:38:00;12.20;;;8.58;;
47481;SDS011;33219;47.410;9.730;2023-04-03T09:40:30;11.57;;;7.92;;
47481;SDS011;33219;47.410;9.730;2023-04-03T09:45:49;12.23;;;8.38;;
47481;SDS011;33219;47.410;9.730;2023-04-03T09:48:19;11.73;;;8.25;;
47481;SDS011;33219;47.410;9.730;2023-04-03T09:50:59;14.35;;;9.05;;
47481;SDS011;33219;47.410;9.730;2023-04-03T09:53:30;10.82;;;8.15;;
47481;SDS011;33219;47.410;9.730;2023-04-03T09:56:03;14.10;;;8.15;;
47481;SDS011;33219;47.410;9.730;2023-04-03T09:58:43;10.50;;;7.45;;
47481;SDS011;33219;47.410;9.730;2023-04-03T10:01:10;9.80;;;6.83;;
47481;SDS011;33219;47.410;9.730;2023-04-03T10:03:37;9.30;;;6.80;;
47481;SDS011;33219;47.410;9.730;2023-04-03T10:06:22;13.70;;;7.92;;
47481;SDS011;33219;47.410;9.730;2023-04-03T10:08:59;12.50;;;7.85;;
47481;SDS011;33219;47.410;9.730;2023-04-03T10:11:30;13.40;;;7.78;;
47481;SDS011;33219;47.410;9.730;2023-04-03T10:13:59;14.53;;;8.85;;
47481;SDS011;33219;47.410;9.730;2023-04-03T10:16:30;12.10;;;7.35;;
47481;SDS011;33219;47.410;9.730;2023-04-03T10:35:34;9.10;;;6.05;;
47481;SDS011;33219;47.410;9.730;2023-04-03T10:46:28;7.87;;;5.50;;
47481;SDS011;33219;47.410;9.730;2023-04-03T10:52:09;8.25;;;6.08;;
47481;SDS011;33219;47.410;9.730;2023-04-03T10:54:48;7.55;;;5.95;;
47481;SDS011;33219;47.410;9.730;2023-04-03T10:57:13;8.55;;;6.35;;
47481;SDS011;33219;47.410;9.730;2023-04-03T11:05:04;8.35;;;6.22;;
47481;SDS011;33219;47.410;9.730;2023-04-03T11:07:36;7.85;;;5.87;;
47481;SDS011;33219;47.410;9.730;2023-04-03T11:10:03;8.63;;;5.28;;
47481;SDS011;33219;47.410;9.730;2023-04-03T11:15:16;7.22;;;5.92;;
47481;SDS011;33219;47.410;9.730;2023-04-03T11:17:47;8.58;;;5.75;;
47481;SDS011;33219;47.410;9.730;2023-04-03T11:20:20;6.60;;;4.90;;
47481;SDS011;33219;47.410;9.730;2023-04-03T11:22:57;7.47;;;5.53;;
47481;SDS011;33219;47.410;9.730;2023-04-03T11:25:27;6.72;;;5.35;;
47481;SDS011;33219;47.410;9.730;2023-04-03T11:28:09;6.37;;;4.92;;
47481;SDS011;33219;47.410;9.730;2023-04-03T11:30:39;6.97;;;4.78;;
47481;SDS011;33219;47.410;9.730;2023-04-03T11:36:09;7.60;;;4.60;;
47481;SDS011;33219;47.410;9.730;2023-04-03T11:38:48;5.78;;;4.12;;
47481;SDS011;33219;47.410;9.730;2023-04-03T11:41:20;7.50;;;4.53;;
47481;SDS011;33219;47.410;9.730;2023-04-03T11:43:57;6.03;;;4.37;;
47481;SDS011;33219;47.410;9.730;2023-04-03T12:14:01;3.92;;;2.87;;
47481;SDS011;33219;47.410;9.730;2023-04-03T12:16:28;3.80;;;2.83;;
47481;SDS011;33219;47.410;9.730;2023-04-03T12:19:27;3.80;;;2.98;;
47481;SDS011;33219;47.410;9.730;2023-04-03T12:36:11;4.40;;;2.90;;
47481;SDS011;33219;47.410;9.730;2023-04-03T12:40:53;3.87;;;2.60;;
47481;SDS011;33219;47.410;9.730;2023-04-03T12:43:54;4.92;;;2.98;;
47481;SDS011;33219;47.410;9.730;2023-04-03T12:48:49;3.40;;;2.55;;
47481;SDS011;33219;47.410;9.730;2023-04-03T12:51:44;3.70;;;2.55;;
47481;SDS011;33219;47.410;9.730;2023-04-03T12:54:16;3.65;;;2.70;;
47481;SDS011;33219;47.410;9.730;2023-04-03T12:59:43;4.45;;;3.22;;
47481;SDS011;33219;47.410;9.730;2023-04-03T13:02:28;5.08;;;3.45;;
47481;SDS011;33219;47.410;9.730;2023-04-03T13:04:58;7.60;;;4.10;;
47481;SDS011;33219;47.410;9.730;2023-04-03T13:07:29;4.03;;;2.70;;
47481;SDS011;33219;47.410;9.730;2023-04-03T13:10:00;4.08;;;2.60;;
47481;SDS011;33219;47.410;9.730;2023-04-03T13:12:44;3.30;;;2.60;;
47481;SDS011;33219;47.410;9.730;2023-04-03T13:15:20;3.60;;;2.67;;
47481;SDS011;33219;47.410;9.730;2023-04-03T13:17:50;3.33;;;2.42;;
47481;SDS011;33219;47.410;9.730;2023-04-03T13:20:20;4.45;;;2.52;;
47481;SDS011;33219;47.410;9.730;2023-04-03T13:25:25;3.47;;;2.40;;
47481;SDS011;33219;47.410;9.730;2023-04-03T13:27:56;4.47;;;2.58;;
47481;SDS011;33219;47.410;9.730;2023-04-03T13:30:34;3.58;;;2.58;;
47481;SDS011;33219;47.410;9.730;2023-04-03T13:33:00;3.08;;;2.50;;
47481;SDS011;33219;47.410;9.730;2023-04-03T13:35:34;4.28;;;2.50;;
47481;SDS011;33219;47.410;9.730;2023-04-03T13:38:19;3.37;;;2.45;;
47481;SDS011;33219;47.410;9.730;2023-04-03T13:40:57;4.58;;;2.87;;
47481;SDS011;33219;47.410;9.730;2023-04-03T13:43:27;3.47;;;2.58;;
47481;SDS011;33219;47.410;9.730;2023-04-03T13:48:37;6.12;;;3.10;;
47481;SDS011;33219;47.410;9.730;2023-04-03T13:53:52;3.95;;;2.80;;
47481;SDS011;33219;47.410;9.730;2023-04-03T14:01:47;4.97;;;3.20;;
47481;SDS011;33219;47.410;9.730;2023-04-03T14:04:21;3.83;;;2.90;;
47481;SDS011;33219;47.410;9.730;2023-04-03T14:06:50;4.22;;;3.17;;
47481;SDS011;33219;47.410;9.730;2023-04-03T14:09:18;3.72;;;2.70;;
47481;SDS011;33219;47.410;9.730;2023-04-03T14:11:48;3.77;;;2.87;;
47481;SDS011;33219;47.410;9.730;2023-04-03T14:14:20;4.47;;;3.00;;
47481;SDS011;33219;47.410;9.730;2023-04-03T14:16:54;5.42;;;3.35;;
47481;SDS011;33219;47.410;9.730;2023-04-03T14:19:26;4.17;;;3.50;;
47481;SDS011;33219;47.410;9.730;2023-04-03T14:21:56;3.92;;;2.80;;
47481;SDS011;33219;47.410;9.730;2023-04-03T14:24:24;4.42;;;3.30;;
47481;SDS011;33219;47.410;9.730;2023-04-03T14:26:54;4.70;;;3.42;;
47481;SDS011;33219;47.410;9.730;2023-04-03T14:29:23;5.30;;;3.40;;
47481;SDS011;33219;47.410;9.730;2023-04-03T14:31:51;5.12;;;3.02;;
47481;SDS011;33219;47.410;9.730;2023-04-03T14:34:18;4.62;;;3.50;;
47481;SDS011;33219;47.410;9.730;2023-04-03T14:36:46;5.47;;;3.12;;
47481;SDS011;33219;47.410;9.730;2023-04-03T14:39:16;6.10;;;3.62;;
47481;SDS011;33219;47.410;9.730;2023-04-03T14:41:44;4.78;;;3.20;;
47481;SDS011;33219;47.410;9.730;2023-04-03T14:44:13;4.42;;;3.37;;
47481;SDS011;33219;47.410;9.730;2023-04-03T14:46:41;3.87;;;3.20;;
47481;SDS011;33219;47.410;9.730;2023-04-03T14:49:14;5.17;;;3.02;;
47481;SDS011;33219;47.410;9.730;2023-04-03T14:51:44;5.20;;;3.40;;
47481;SDS011;33219;47.410;9.730;2023-04-03T14:54:16;5.25;;;3.40;;
47481;SDS011;33219;47.410;9.730;2023-04-03T14:56:46;4.75;;;3.55;;
47481;SDS011;33219;47.410;9.730;2023-04-03T14:59:14;4.40;;;3.62;;
47481;SDS011;33219;47.410;9.730;2023-04-03T15:01:43;5.90;;;3.40;;
47481;SDS011;33219;47.410;9.730;2023-04-03T15:04:12;4.47;;;3.27;;
47481;SDS011;33219;47.410;9.730;2023-04-03T15:06:40;6.25;;;3.65;;
47481;SDS011;33219;47.410;9.730;2023-04-03T15:09:30;4.65;;;3.72;;
47481;SDS011;33219;47.410;9.730;2023-04-03T15:11:39;5.17;;;3.55;;
47481;SDS011;33219;47.410;9.730;2023-04-03T15:14:08;4.55;;;2.60;;
47481;SDS011;33219;47.410;9.730;2023-04-03T15:16:36;7.47;;;3.92;;
47481;SDS011;33219;47.410;9.730;2023-04-03T15:19:04;5.35;;;3.80;;
47481;SDS011;33219;47.410;9.730;2023-04-03T15:21:32;5.08;;;3.77;;
47481;SDS011;33219;47.410;9.730;2023-04-03T15:23:59;5.37;;;3.40;;
47481;SDS011;33219;47.410;9.730;2023-04-03T15:26:27;6.60;;;3.75;;
47481;SDS011;33219;47.410;9.730;2023-04-03T15:28:55;5.53;;;3.60;;
47481;SDS011;33219;47.410;9.730;2023-04-03T15:31:23;5.83;;;3.77;;
47481;SDS011;33219;47.410;9.730;2023-04-03T15:33:51;5.33;;;3.77;;
47481;SDS011;33219;47.410;9.730;2023-04-03T15:36:18;6.15;;;3.70;;
47481;SDS011;33219;47.410;9.730;2023-04-03T15:38:46;5.87;;;3.90;;
47481;SDS011;33219;47.410;9.730;2023-04-03T15:41:13;6.20;;;4.00;;
47481;SDS011;33219;47.410;9.730;2023-04-03T15:43:41;3.83;;;3.30;;
47481;SDS011;33219;47.410;9.730;2023-04-03T15:46:08;5.75;;;3.80;;
47481;SDS011;33219;47.410;9.730;2023-04-03T15:48:36;6.10;;;4.10;;
47481;SDS011;33219;47.410;9.730;2023-04-03T15:51:05;6.22;;;4.28;;
47481;SDS011;33219;47.410;9.730;2023-04-03T15:53:32;5.15;;;4.08;;
47481;SDS011;33219;47.410;9.730;2023-04-03T15:56:00;4.97;;;3.80;;
47481;SDS011;33219;47.410;9.730;2023-04-03T15:58:27;5.37;;;3.80;;
47481;SDS011;33219;47.410;9.730;2023-04-03T16:00:55;5.28;;;4.15;;
47481;SDS011;33219;47.410;9.730;2023-04-03T16:03:23;6.50;;;3.80;;
47481;SDS011;33219;47.410;9.730;2023-04-03T16:05:51;4.45;;;3.65;;
47481;SDS011;33219;47.410;9.730;2023-04-03T16:08:19;5.20;;;4.03;;
47481;SDS011;33219;47.410;9.730;2023-04-03T16:10:46;4.80;;;3.70;;
47481;SDS011;33219;47.410;9.730;2023-04-03T16:13:14;5.77;;;4.17;;
47481;SDS011;33219;47.410;9.730;2023-04-03T16:15:42;5.43;;;3.83;;
47481;SDS011;33219;47.410;9.730;2023-04-03T16:18:10;5.77;;;4.23;;
47481;SDS011;33219;47.410;9.730;2023-04-03T16:20:39;5.43;;;4.10;;
47481;SDS011;33219;47.410;9.730;2023-04-03T16:23:09;4.62;;;3.55;;
47481;SDS011;33219;47.410;9.730;2023-04-03T16:25:37;5.75;;;3.85;;
47481;SDS011;33219;47.410;9.730;2023-04-03T16:28:05;5.97;;;4.40;;
47481;SDS011;33219;47.410;9.730;2023-04-03T16:30:33;5.23;;;3.93;;
47481;SDS011;33219;47.410;9.730;2023-04-03T16:33:00;4.97;;;3.37;;
47481;SDS011;33219;47.410;9.730;2023-04-03T16:35:29;4.83;;;3.67;;
47481;SDS011;33219;47.410;9.730;2023-04-03T16:37:56;4.87;;;3.87;;
47481;SDS011;33219;47.410;9.730;2023-04-03T16:40:24;4.80;;;3.90;;
47481;SDS011;33219;47.410;9.730;2023-04-03T16:42:51;6.73;;;4.10;;
47481;SDS011;33219;47.410;9.730;2023-04-03T16:45:19;7.00;;;4.13;;
47481;SDS011;33219;47.410;9.730;2023-04-03T16:47:47;6.10;;;3.90;;
47481;SDS011;33219;47.410;9.730;2023-04-03T16:50:14;5.57;;;3.53;;
47481;SDS011;33219;47.410;9.730;2023-04-03T16:52:42;5.73;;;4.10;;
47481;SDS011;33219;47.410;9.730;2023-04-03T16:55:12;5.23;;;4.00;;
47481;SDS011;33219;47.410;9.730;2023-04-03T16:57:40;5.93;;;4.10;;
47481;SDS011;33219;47.410;9.730;2023-04-03T17:00:08;5.40;;;3.63;;